Time;durP1;ratioP1;P1;durP2;ratioP2;P2;SDS_P1;SDS_P2;PMS_P1;PMS_P2;Temp;Humidity;BMP_temperature;BMP_pressure;BME280_temperature;BME280_humidity;BME280_pressure;Samples;Min_cycle;Max_cycle;Signal;HPM_P1;HPM_P2
2021/08/09 00:02:23;;;;;;;17.90;6.28;;;;;;;17.11;75.69;99829.78;5084390;28;20526;-70
2021/08/09 00:04:49;;;;;;;15.98;5.40;;;;;;;17.14;75.54;99832.25;5084268;28;20032;-70
2021/08/09 00:07:16;;;;;;;13.95;5.68;;;;;;;17.18;75.82;99836.44;5082898;28;20090;-70
2021/08/09 00:09:41;;;;;;;18.92;6.32;;;;;;;17.17;75.77;99834.75;5084263;28;20029;-71
2021/08/09 00:12:06;;;;;;;15.15;5.70;;;;;;;17.16;75.88;99838.25;5082709;28;20195;-71
2021/08/09 00:14:32;;;;;;;14.60;5.72;;;;;;;17.19;75.93;99843.38;5084000;28;20092;-70
2021/08/09 00:16:58;;;;;;;18.60;6.47;;;;;;;17.15;75.97;99841.81;5083624;28;20310;-70
2021/08/09 00:19:23;;;;;;;12.93;5.50;;;;;;;17.17;75.91;99845.22;5084133;28;20032;-70
2021/08/09 00:21:48;;;;;;;19.60;6.38;;;;;;;17.12;76.04;99839.34;5083805;28;20029;-68
2021/08/09 00:24:14;;;;;;;15.18;6.22;;;;;;;17.12;76.00;99844.59;5084064;28;20495;-69
2021/08/09 00:26:39;;;;;;;18.88;6.45;;;;;;;17.15;75.79;99852.31;5083387;28;20024;-69
2021/08/09 00:29:05;;;;;;;13.40;6.03;;;;;;;17.14;75.91;99861.13;5082329;28;20024;-70
2021/08/09 00:31:30;;;;;;;14.93;6.35;;;;;;;17.13;76.05;99859.38;5083885;28;20029;-70
2021/08/09 00:33:55;;;;;;;15.65;6.28;;;;;;;17.12;76.02;99860.31;5083969;28;20012;-69
2021/08/09 00:36:21;;;;;;;14.38;5.95;;;;;;;17.13;75.71;99862.00;5083830;28;20047;-70
2021/08/09 00:38:47;;;;;;;15.32;5.32;;;;;;;17.09;75.99;99869.19;5083758;28;20024;-70
2021/08/09 00:41:12;;;;;;;11.32;5.97;;;;;;;17.09;76.17;99870.00;5083807;28;20055;-70
2021/08/09 00:43:38;;;;;;;13.10;6.63;;;;;;;17.06;76.27;99864.03;5083477;28;20267;-69
2021/08/09 00:46:04;;;;;;;13.95;6.20;;;;;;;17.08;75.99;99873.56;5082190;28;20024;-69
2021/08/09 00:48:33;;;;;;;24.42;7.40;;;;;;;17.13;75.95;99880.38;5082335;28;20017;-70
2021/08/09 00:50:59;;;;;;;21.25;7.03;;;;;;;17.12;75.99;99879.53;5083788;28;20027;-71
2021/08/09 00:53:24;;;;;;;12.90;5.85;;;;;;;17.11;75.87;99882.22;5082438;28;20029;-69
2021/08/09 00:55:52;;;;;;;20.20;6.63;;;;;;;17.06;76.08;99883.22;5065407;28;20029;-70
2021/08/09 00:58:18;;;;;;;13.73;6.45;;;;;;;17.02;76.00;99883.44;5083572;28;20055;-69
2021/08/09 01:00:43;;;;;;;13.73;6.13;;;;;;;16.97;75.95;99875.78;5083647;28;20035;-69
2021/08/09 01:03:09;;;;;;;13.93;6.22;;;;;;;16.94;76.28;99884.63;5082126;28;20020;-71
2021/08/09 01:05:34;;;;;;;18.33;6.38;;;;;;;16.90;76.12;99890.91;5083420;28;20532;-69
2021/08/09 01:08:32;;;;;;;15.57;5.68;;;;;;;16.88;76.26;99891.91;5083390;28;20024;-70
2021/08/09 01:11:20;;;;;;;17.90;5.85;;;;;;;16.89;76.05;99896.22;5083342;28;20038;-71
2021/08/09 01:13:46;;;;;;;15.88;6.60;;;;;;;16.85;76.23;99896.34;5083355;28;20028;-70
2021/08/09 01:16:13;;;;;;;14.32;6.18;;;;;;;16.83;76.09;99892.97;5083240;28;20016;-70
2021/08/09 01:18:40;;;;;;;17.85;6.07;;;;;;;16.82;76.06;99899.13;5083357;28;20123;-70
2021/08/09 01:21:07;;;;;;;21.30;6.35;;;;;;;16.78;76.07;99900.19;5083180;28;20032;-70
2021/08/09 01:23:46;;;;;;;21.48;5.82;;;;;;;16.74;76.72;99906.47;5083344;28;20024;-69
2021/08/09 01:26:35;;;;;;;18.48;6.00;;;;;;;16.68;76.57;99901.47;5083429;28;20062;-71
2021/08/09 01:29:03;;;;;;;17.42;5.80;;;;;;;16.62;76.87;99912.22;5083127;28;20047;-70
2021/08/09 01:31:36;;;;;;;20.08;6.57;;;;;;;16.57;76.89;99912.41;5081742;28;20024;-70
2021/08/09 01:34:02;;;;;;;20.13;6.63;;;;;;;16.56;77.05;99908.94;5083310;28;20025;-70
2021/08/09 01:36:29;;;;;;;20.85;6.70;;;;;;;16.60;77.10;99912.28;5082895;28;20021;-71
2021/08/09 01:38:55;;;;;;;21.42;6.55;;;;;;;16.56;77.38;99908.09;5083504;28;20020;-70
2021/08/09 01:41:24;;;;;;;25.77;6.75;;;;;;;16.53;77.81;99906.47;5087018;28;20104;-70
2021/08/09 01:43:50;;;;;;;20.95;7.35;;;;;;;16.54;77.79;99912.53;5087140;28;20507;-71
2021/08/09 01:46:16;;;;;;;20.55;6.40;;;;;;;16.52;78.01;99914.38;5086834;28;20048;-71
2021/08/09 01:48:43;;;;;;;23.33;6.30;;;;;;;16.44;78.28;99912.06;5087011;28;20270;-71
2021/08/09 01:51:08;;;;;;;17.70;6.50;;;;;;;16.51;78.31;99915.28;5086946;28;20030;-70
2021/08/09 01:53:34;;;;;;;18.90;6.32;;;;;;;16.48;78.29;99921.50;5086895;28;20052;-69
2021/08/09 01:56:00;;;;;;;18.48;6.40;;;;;;;16.52;78.04;99928.31;5086816;28;20023;-70
2021/08/09 01:58:26;;;;;;;24.17;6.15;;;;;;;16.48;78.03;99932.81;5085434;28;20074;-70
2021/08/09 02:00:51;;;;;;;18.42;6.07;;;;;;;16.42;78.37;99917.34;5085169;28;20028;-70
2021/08/09 02:03:16;;;;;;;19.02;6.60;;;;;;;16.44;78.45;99933.00;5086584;28;20025;-71
2021/08/09 02:05:42;;;;;;;24.38;7.15;;;;;;;16.44;78.44;99941.72;5086413;28;20029;-70
2021/08/09 02:08:11;;;;;;;27.90;6.20;;;;;;;16.41;78.24;99927.91;5086214;28;20085;-71
2021/08/09 02:10:37;;;;;;;22.02;6.50;;;;;;;16.41;78.24;99935.75;5084950;28;20070;-71
2021/08/09 02:13:02;;;;;;;19.83;6.32;;;;;;;16.40;78.04;99931.44;5086488;28;20036;-71
2021/08/09 02:16:10;;;;;;;26.90;7.13;;;;;;;16.35;78.43;99932.50;5086436;28;20028;-71
2021/08/09 02:18:56;;;;;;;22.45;7.05;;;;;;;16.34;78.24;99929.94;5086217;28;20051;-71
2021/08/09 02:21:26;;;;;;;23.95;6.72;;;;;;;16.35;78.53;99931.63;5085066;28;20031;-71
2021/08/09 02:23:55;;;;;;;29.15;7.13;;;;;;;16.33;78.35;99931.69;5085171;28;20016;-71
2021/08/09 02:26:31;;;;;;;26.45;6.82;;;;;;;16.37;78.15;99935.03;5086357;28;20025;-71
2021/08/09 02:29:04;;;;;;;20.08;6.57;;;;;;;16.34;78.48;99932.56;5086124;28;20076;-70
2021/08/09 02:31:31;;;;;;;22.10;6.70;;;;;;;16.34;78.62;99935.16;5086271;28;20363;-72
2021/08/09 02:33:58;;;;;;;24.08;6.40;;;;;;;16.29;78.39;99948.47;5086085;28;20032;-71
2021/08/09 02:36:24;;;;;;;25.55;6.50;;;;;;;16.26;78.51;99945.97;5084778;28;20020;-71
2021/08/09 02:38:50;;;;;;;18.92;5.93;;;;;;;16.24;78.65;99945.16;5086326;28;20029;-70
2021/08/09 02:41:16;;;;;;;24.48;7.97;;;;;;;16.25;78.93;99941.63;5085888;28;20020;-70
2021/08/09 02:43:42;;;;;;;21.92;7.32;;;;;;;16.26;79.19;99938.09;5085860;28;20021;-70
2021/08/09 02:46:07;;;;;;;26.83;7.65;;;;;;;16.30;79.05;99950.16;5084428;28;20059;-71
2021/08/09 02:48:36;;;;;;;22.10;7.75;;;;;;;16.32;79.45;99942.22;5085984;28;20044;-71
2021/08/09 02:51:02;;;;;;;20.92;6.80;;;;;;;16.35;79.14;99948.22;5085347;28;20040;-71
2021/08/09 02:53:28;;;;;;;28.13;6.72;;;;;;;16.42;78.90;99945.34;5085983;28;20020;-70
2021/08/09 02:55:57;;;;;;;26.30;7.97;;;;;;;16.44;79.04;99946.09;5085805;28;20036;-71
2021/08/09 02:58:22;;;;;;;31.30;7.70;;;;;;;16.48;79.03;99955.56;5084222;28;20024;-71
2021/08/09 03:00:49;;;;;;;27.33;7.25;;;;;;;16.50;78.86;99951.13;5085733;28;20461;-70
2021/08/09 03:03:21;;;;;;;17.15;7.03;;;;;;;16.49;78.75;99949.41;5085934;28;20039;-71
2021/08/09 03:05:47;;;;;;;;;;;;;;;16.52;78.62;99949.28;5084600;28;20058;-70
2021/08/09 03:08:13;;;;;;;25.05;7.53;;;;;;;16.47;78.89;99956.47;5085311;28;19908;-70
2021/08/09 03:10:38;;;;;;;30.35;7.50;;;;;;;16.49;79.05;99957.25;5085542;28;20024;-72
2021/08/09 03:13:08;;;;;;;21.17;6.45;;;;;;;16.50;79.21;99963.38;5084187;28;20110;-72
2021/08/09 03:15:33;;;;;;;29.23;6.38;;;;;;;16.54;79.03;99954.44;5085399;28;20017;-72
2021/08/09 03:18:00;;;;;;;28.13;7.25;;;;;;;16.55;79.21;99953.56;5085003;28;20086;-72
2021/08/09 03:20:25;;;;;;;27.33;7.32;;;;;;;16.55;78.60;99953.56;5084031;28;20020;-71
2021/08/09 03:22:51;;;;;;;21.48;7.18;;;;;;;16.57;78.46;99955.19;5085211;28;20028;-72
2021/08/09 03:25:16;;;;;;;24.08;6.05;;;;;;;16.53;78.34;99953.63;5085482;28;20029;-72
2021/08/09 03:27:41;;;;;;;31.30;6.50;;;;;;;16.55;78.33;99964.03;5084595;28;20538;-70
2021/08/09 03:30:07;;;;;;;19.67;7.22;;;;;;;16.52;77.82;99965.00;5084035;28;20580;-70
2021/08/09 03:32:33;;;;;;;23.95;7.25;;;;;;;16.40;77.96;99952.41;5084751;28;20012;-73
2021/08/09 03:34:58;;;;;;;30.33;7.03;;;;;;;16.50;78.07;99964.22;5083459;28;20021;-72
2021/08/09 03:37:23;;;;;;;30.98;7.72;;;;;;;16.49;77.78;99965.13;5084933;28;21923;-71
2021/08/09 03:39:48;;;;;;;31.02;7.15;;;;;;;16.46;77.85;99954.75;5084970;28;20020;-71
2021/08/09 03:42:14;;;;;;;27.00;6.47;;;;;;;16.47;77.66;99969.56;5084819;28;20082;-70
2021/08/09 03:44:39;;;;;;;25.65;8.02;;;;;;;16.41;77.96;99964.56;5084615;28;20020;-70
2021/08/09 03:47:04;;;;;;;24.05;6.75;;;;;;;16.36;78.16;99964.75;5084817;28;20028;-70
2021/08/09 03:49:30;;;;;;;37.42;7.70;;;;;;;16.31;78.19;99971.97;5084691;28;20016;-70
2021/08/09 03:51:55;;;;;;;26.30;6.38;;;;;;;16.27;78.18;99968.59;5084628;28;20054;-71
2021/08/09 03:54:21;;;;;;;23.42;7.95;;;;;;;16.27;78.16;99983.47;5083382;28;20028;-70
2021/08/09 03:56:46;;;;;;;23.52;6.55;;;;;;;16.27;77.91;99970.38;5084809;28;20100;-69
2021/08/09 03:59:11;;;;;;;28.63;5.95;;;;;;;16.32;78.04;99976.28;5084333;28;20044;-69
2021/08/09 04:01:38;;;;;;;30.65;6.95;;;;;;;16.31;77.72;99972.78;5082157;28;20016;-69
2021/08/09 04:04:05;;;;;;;27.05;6.47;;;;;;;16.41;77.50;99989.00;5084276;28;20038;-70
2021/08/09 04:06:31;;;;;;;24.48;5.75;;;;;;;16.43;77.32;99981.09;5082990;28;20071;-70
2021/08/09 04:08:56;;;;;;;27.83;7.72;;;;;;;16.45;77.05;99981.88;5084286;28;20504;-70
2021/08/09 04:11:21;;;;;;;26.98;6.65;;;;;;;16.49;76.96;99988.69;5084320;28;20085;-70
2021/08/09 04:13:47;;;;;;;22.25;6.32;;;;;;;16.54;77.04;99993.75;5084236;28;20032;-69
2021/08/09 04:16:12;;;;;;;30.55;6.90;;;;;;;16.54;76.95;99985.91;5084209;28;20020;-70
2021/08/09 04:18:38;;;;;;;25.33;5.85;;;;;;;16.62;76.48;100001.31;5083763;28;20047;-69
2021/08/09 04:21:04;;;;;;;22.23;6.00;;;;;;;16.62;76.76;99998.69;5084037;28;20027;-70
2021/08/09 04:23:29;;;;;;;28.95;6.70;;;;;;;16.65;76.57;99991.56;5083919;28;20024;-70
2021/08/09 04:25:55;;;;;;;28.45;7.13;;;;;;;16.75;76.32;100002.53;5083785;28;20024;-69
2021/08/09 04:28:20;;;;;;;28.75;8.27;;;;;;;16.74;76.00;99998.22;5083774;28;20055;-68
2021/08/09 04:30:45;;;;;;;21.95;5.70;;;;;;;16.80;75.88;100000.56;5083733;28;20021;-68
2021/08/09 04:33:11;;;;;;;22.20;5.78;;;;;;;16.87;76.08;100003.78;5083791;28;20020;-69
2021/08/09 04:35:36;;;;;;;23.02;6.45;;;;;;;16.92;75.66;100001.81;5083860;28;20048;-69
2021/08/09 04:38:01;;;;;;;29.27;6.95;;;;;;;17.01;75.42;100012.84;5083643;28;20032;-69
2021/08/09 04:40:27;;;;;;;26.65;6.32;;;;;;;17.04;75.24;100013.59;5083599;28;20035;-69
2021/08/09 04:42:52;;;;;;;26.52;6.70;;;;;;;17.07;75.28;100013.47;5083553;28;20025;-71
2021/08/09 04:45:17;;;;;;;26.45;7.13;;;;;;;17.14;75.26;100013.22;5083453;28;20012;-69
2021/08/09 04:47:43;;;;;;;23.55;5.43;;;;;;;17.19;75.02;100016.47;5081954;28;20103;-69
2021/08/09 04:50:09;;;;;;;21.13;6.03;;;;;;;17.26;74.48;100009.22;5083583;28;20032;-69
2021/08/09 04:52:41;;;;;;;27.77;5.55;;;;;;;17.27;74.44;100016.19;5083606;28;20026;-69
2021/08/09 04:55:10;;;;;;;26.25;5.65;;;;;;;17.30;73.73;100011.63;5083648;28;20030;-69
2021/08/09 04:57:36;;;;;;;23.90;5.53;;;;;;;17.31;74.13;100010.75;5081630;28;20371;-68
2021/08/09 05:00:03;;;;;;;21.88;6.45;;;;;;;17.67;73.84;100014.44;5083313;28;20039;-67
2021/08/09 05:02:28;;;;;;;19.35;4.82;;;;;;;17.93;72.41;100020.28;5081671;28;20032;-68
2021/08/09 05:04:54;;;;;;;25.30;5.20;;;;;;;17.99;71.43;100021.75;5083305;28;20024;-68
2021/08/09 05:07:19;;;;;;;18.58;4.88;;;;;;;17.94;71.10;100019.34;5083308;28;20020;-68
2021/08/09 05:09:45;;;;;;;18.95;5.32;;;;;;;17.89;71.32;100015.25;5083316;28;20055;-69
2021/08/09 05:12:10;;;;;;;17.98;4.50;;;;;;;17.88;71.49;100018.78;5083076;28;20020;-69
2021/08/09 05:14:35;;;;;;;26.85;5.63;;;;;;;17.88;71.50;100031.91;5082680;28;20020;-69
2021/08/09 05:17:01;;;;;;;26.88;6.35;;;;;;;17.91;71.41;100027.38;5082896;28;20028;-69
2021/08/09 05:19:26;;;;;;;21.30;5.38;;;;;;;17.95;71.23;100022.84;5083234;28;20021;-68
2021/08/09 05:21:52;;;;;;;16.90;5.00;;;;;;;17.99;71.24;100024.38;5083159;28;20025;-68
2021/08/09 05:24:17;;;;;;;19.55;5.13;;;;;;;17.99;70.99;100026.19;5083214;28;20111;-68
2021/08/09 05:26:43;;;;;;;16.88;5.05;;;;;;;17.98;70.76;100022.69;5083025;28;20020;-68
2021/08/09 05:29:08;;;;;;;21.50;6.03;;;;;;;17.94;70.98;100018.50;5083063;28;20043;-68
2021/08/09 05:31:34;;;;;;;29.73;6.50;;;;;;;17.95;70.90;100022.84;5083123;28;20055;-68
2021/08/09 05:34:00;;;;;;;29.63;6.05;;;;;;;18.01;70.82;100022.56;5083405;28;20025;-68
2021/08/09 05:36:26;;;;;;;18.17;4.88;;;;;;;18.02;70.74;100034.75;5082897;28;20051;-68
2021/08/09 05:38:52;;;;;;;22.80;4.97;;;;;;;17.98;70.95;100027.94;5082927;28;20404;-68
2021/08/09 05:41:17;;;;;;;15.65;5.10;;;;;;;17.99;70.91;100037.53;5083252;28;20327;-69
2021/08/09 05:43:42;;;;;;;20.30;5.68;;;;;;;18.09;70.98;100032.72;5082927;28;20032;-68
2021/08/09 05:46:08;;;;;;;20.60;4.55;;;;;;;18.27;70.85;100032.81;5081478;28;20107;-68
2021/08/09 05:48:34;;;;;;;16.20;4.68;;;;;;;18.47;70.04;100025.78;5082321;28;20036;-68
2021/08/09 05:50:59;;;;;;;22.20;5.15;;;;;;;18.66;69.07;100037.09;5082988;28;20042;-67
2021/08/09 05:53:27;;;;;;;13.50;3.95;;;;;;;18.82;67.74;100037.19;5082987;28;20024;-68
2021/08/09 05:55:53;;;;;;;13.57;4.63;;;;;;;18.98;67.39;100030.34;5082934;28;20048;-68
2021/08/09 05:58:19;;;;;;;13.65;4.40;;;;;;;19.03;67.03;100037.06;5082326;28;20021;-68
2021/08/09 06:00:44;;;;;;;17.52;5.20;;;;;;;19.03;66.86;100034.44;5082677;28;20020;-68
2021/08/09 06:03:17;;;;;;;15.40;4.50;;;;;;;19.01;66.63;100038.91;5082882;28;20310;-68
2021/08/09 06:05:42;;;;;;;12.45;4.47;;;;;;;18.98;66.47;100040.84;5082844;28;20020;-68
2021/08/09 06:08:08;;;;;;;16.73;4.13;;;;;;;19.33;66.96;100032.97;5081163;28;20130;-67
2021/08/09 06:10:33;;;;;;;13.32;4.15;;;;;;;19.87;65.95;100039.00;5082566;28;20032;-67
2021/08/09 06:12:58;;;;;;;12.63;3.58;;;;;;;19.94;63.35;100040.34;5082650;28;20070;-67
2021/08/09 06:15:24;;;;;;;14.80;4.18;;;;;;;19.78;62.89;100045.59;5082283;28;20052;-68
2021/08/09 06:17:49;;;;;;;13.48;3.67;;;;;;;19.79;63.66;100044.69;5080988;28;20315;-67
2021/08/09 06:20:15;;;;;;;16.35;4.22;;;;;;;19.96;63.58;100049.03;5082652;28;20035;-67
2021/08/09 06:22:40;;;;;;;11.05;3.28;;;;;;;20.27;61.96;100046.56;5082451;28;20021;-67
2021/08/09 06:25:06;;;;;;;16.30;4.03;;;;;;;20.29;61.99;100052.56;5083168;28;20364;-68
2021/08/09 06:27:31;;;;;;;14.25;4.10;;;;;;;20.22;61.96;100056.50;5086004;28;20084;-68
2021/08/09 06:29:56;;;;;;;15.90;4.07;;;;;;;20.66;62.64;100055.81;5086095;28;20024;-69
2021/08/09 06:32:24;;;;;;;14.00;3.65;;;;;;;21.43;60.02;100056.72;5086007;28;20024;-68
2021/08/09 06:34:49;;;;;;;11.80;3.67;;;;;;;22.16;58.93;100054.97;5086023;28;20025;-68
2021/08/09 06:37:15;;;;;;;10.60;3.58;;;;;;;22.67;56.25;100062.44;5085942;28;20088;-69
2021/08/09 06:39:40;;;;;;;14.23;3.55;;;;;;;22.88;54.40;100058.38;5086032;28;20021;-69
2021/08/09 06:42:06;;;;;;;9.30;3.38;;;;;;;23.04;53.66;100060.00;5086058;28;20028;-69
2021/08/09 06:44:32;;;;;;;11.00;3.25;;;;;;;23.37;53.07;100061.31;5085773;28;20017;-68
2021/08/09 06:46:58;;;;;;;9.63;2.95;;;;;;;23.62;51.73;100050.88;5084383;28;20032;-69
2021/08/09 06:49:24;;;;;;;9.48;2.90;;;;;;;23.85;51.50;100054.56;5086011;28;20021;-68
2021/08/09 06:51:49;;;;;;;11.43;3.63;;;;;;;23.76;49.57;100058.72;5086036;28;20103;-69
2021/08/09 06:54:15;;;;;;;9.60;3.22;;;;;;;23.47;51.24;100055.41;5085832;28;20020;-68
2021/08/09 06:56:40;;;;;;;8.70;2.75;;;;;;;23.35;51.37;100057.09;5085510;28;20025;-69
2021/08/09 06:59:05;;;;;;;13.18;3.42;;;;;;;22.95;51.96;100056.19;5085627;28;20321;-69
2021/08/09 07:01:31;;;;;;;7.28;2.95;;;;;;;22.51;52.72;100056.31;5085429;28;20021;-68
2021/08/09 07:03:56;;;;;;;11.93;3.78;;;;;;;22.13;53.54;100055.16;5085588;28;20024;-68
2021/08/09 07:06:23;;;;;;;10.02;3.25;;;;;;;22.09;54.02;100051.03;5085443;28;20028;-69
2021/08/09 07:08:50;;;;;;;9.05;3.60;;;;;;;22.07;54.19;100055.56;5085280;28;20013;-69
2021/08/09 07:11:16;;;;;;;10.60;3.22;;;;;;;22.06;54.35;100053.84;5085223;28;20028;-68
2021/08/09 07:13:41;;;;;;;9.15;3.10;;;;;;;22.25;53.93;100058.81;5084972;28;20070;-68
2021/08/09 07:16:06;;;;;;;9.40;3.10;;;;;;;22.10;53.38;100055.34;5085117;28;20030;-68
2021/08/09 07:18:33;;;;;;;10.88;3.63;;;;;;;22.36;52.62;100057.28;5084911;28;20044;-69
2021/08/09 07:20:59;;;;;;;11.35;3.88;;;;;;;22.75;51.22;100063.63;5085382;28;20020;-68
2021/08/09 07:23:24;;;;;;;8.90;2.85;;;;;;;23.00;50.51;100066.47;5085139;28;20028;-69
2021/08/09 07:25:49;;;;;;;9.88;3.30;;;;;;;22.86;50.20;100070.03;5085338;28;20084;-69
2021/08/09 07:28:15;;;;;;;10.50;3.10;;;;;;;22.58;50.34;100072.63;5084051;28;20020;-68
2021/08/09 07:30:40;;;;;;;10.43;2.90;;;;;;;22.17;50.94;100074.34;5084027;28;20031;-69
2021/08/09 07:33:05;;;;;;;8.98;3.17;;;;;;;21.84;52.38;100084.25;5085173;28;20051;-68
2021/08/09 07:35:31;;;;;;;11.82;3.75;;;;;;;21.64;53.48;100077.50;5085038;28;20048;-69
2021/08/09 07:37:56;;;;;;;15.45;3.17;;;;;;;21.98;53.35;100083.38;5084826;28;20017;-69
2021/08/09 07:40:22;;;;;;;7.38;2.50;;;;;;;22.52;53.26;100087.09;5084954;28;20028;-69
2021/08/09 07:42:47;;;;;;;9.57;2.63;;;;;;;23.48;50.88;100073.84;5084822;28;20424;-70
2021/08/09 07:45:13;;;;;;;8.48;2.78;;;;;;;23.98;47.39;100075.75;5084753;28;20464;-68
2021/08/09 07:47:38;;;;;;;13.73;3.33;;;;;;;24.42;46.64;100080.66;5084573;28;20100;-68
2021/08/09 07:50:04;;;;;;;11.15;2.55;;;;;;;24.43;45.96;100069.09;5084478;28;20088;-70
2021/08/09 07:52:29;;;;;;;9.60;3.20;;;;;;;24.06;46.58;100077.03;5084644;28;20043;-69
2021/08/09 07:54:55;;;;;;;9.15;2.35;;;;;;;23.85;47.37;100082.88;5084644;28;20032;-69
2021/08/09 07:57:21;;;;;;;7.97;2.70;;;;;;;24.00;47.43;100068.53;5084524;28;20032;-69
2021/08/09 07:59:46;;;;;;;7.15;2.42;;;;;;;24.55;46.39;100072.66;5084201;28;20030;-69
2021/08/09 08:02:12;;;;;;;13.38;2.58;;;;;;;24.94;45.63;100082.25;5084459;28;20025;-68
2021/08/09 08:04:38;;;;;;;8.30;1.98;;;;;;;25.19;44.05;100075.13;5084505;28;20032;-69
2021/08/09 08:07:03;;;;;;;7.70;3.15;;;;;;;25.10;43.47;100079.31;5084241;28;20021;-68
2021/08/09 08:09:29;;;;;;;6.03;2.72;;;;;;;25.11;44.23;100079.19;5084498;28;20105;-68
2021/08/09 08:11:54;;;;;;;9.18;2.80;;;;;;;25.30;44.25;100071.66;5082783;28;20024;-69
2021/08/09 08:14:20;;;;;;;7.38;2.72;;;;;;;25.60;43.17;100062.28;5084286;28;20028;-68
2021/08/09 08:16:46;;;;;;;11.93;2.63;;;;;;;25.84;43.18;100069.31;5084061;28;20024;-69
2021/08/09 08:19:12;;;;;;;4.55;1.98;;;;;;;25.92;42.91;100082.00;5084024;28;20036;-69
2021/08/09 08:21:37;;;;;;;9.65;2.65;;;;;;;25.76;42.06;100083.22;5083888;28;20050;-73
2021/08/09 08:24:03;;;;;;;7.70;2.67;;;;;;;25.29;43.40;100080.59;5084024;28;20020;-68
2021/08/09 08:26:28;;;;;;;16.50;4.00;;;;;;;25.42;43.68;100081.31;5083804;28;20040;-72
2021/08/09 08:28:53;;;;;;;11.57;3.05;;;;;;;25.94;42.33;100088.88;5083736;28;20031;-69
2021/08/09 08:31:19;;;;;;;6.43;2.28;;;;;;;26.25;40.06;100085.59;5083681;28;20106;-71
2021/08/09 08:33:44;;;;;;;9.82;2.88;;;;;;;26.24;39.93;100084.78;5083810;28;20024;-68
2021/08/09 08:36:10;;;;;;;11.70;3.47;;;;;;;26.33;40.44;100088.53;5083595;28;20013;-68
2021/08/09 08:38:36;;;;;;;7.45;2.10;;;;;;;26.48;40.15;100097.09;5083322;28;20114;-68
2021/08/09 08:41:06;;;;;;;5.82;2.00;;;;;;;26.97;40.05;100098.50;5082541;28;20028;-78
2021/08/09 08:43:33;;;;;;;7.93;2.42;;;;;;;27.22;37.43;100094.66;5083859;28;20024;-70
2021/08/09 08:46:06;;;;;;;5.65;1.90;;;;;;;27.29;36.86;100096.78;5083536;28;20091;-69
2021/08/09 08:48:34;;;;;;;5.65;1.65;;;;;;;27.29;36.86;100094.13;5083372;28;20408;-75
2021/08/09 08:51:01;;;;;;;6.95;2.38;;;;;;;26.73;37.55;100097.75;5082254;28;20024;-69
2021/08/09 08:53:29;;;;;;;6.13;1.83;;;;;;;26.31;38.40;100105.56;5083435;28;20103;-67
2021/08/09 08:55:55;;;;;;;11.93;2.92;;;;;;;26.16;39.78;100097.84;5083368;28;20075;-69
2021/08/09 08:58:21;;;;;;;8.68;2.03;;;;;;;26.50;38.45;100112.94;5083334;28;20566;-67
2021/08/09 09:00:49;;;;;;;3.75;1.42;;;;;;;26.71;38.03;100106.84;5083439;28;20107;-69
2021/08/09 09:03:22;;;;;;;8.10;2.40;;;;;;;26.90;37.35;100103.47;5083599;28;20056;-68
2021/08/09 09:06:06;;;;;;;8.60;2.38;;;;;;;26.91;38.26;100112.31;5083770;28;20048;-66
2021/08/09 09:08:43;;;;;;;7.88;2.45;;;;;;;26.38;38.63;100106.78;5083346;28;20050;-68
2021/08/09 09:11:30;;;;;;;9.30;2.63;;;;;;;26.43;39.68;100115.25;5083596;28;20362;-66
2021/08/09 09:13:57;;;;;;;4.75;1.80;;;;;;;26.89;38.29;100111.59;5082457;28;20039;-66
2021/08/09 09:16:23;;;;;;;10.05;2.40;;;;;;;26.29;38.71;100118.13;5083216;28;20029;-66
2021/08/09 09:18:52;;;;;;;14.40;2.70;;;;;;;25.40;40.84;100114.31;5082954;28;20041;-67
2021/08/09 09:21:24;;;;;;;8.18;1.88;;;;;;;25.61;41.33;100111.78;5083418;28;20020;-66
2021/08/09 09:23:50;;;;;;;6.03;1.80;;;;;;;25.94;40.98;100096.84;5083305;28;20021;-65
2021/08/09 09:26:24;;;;;;;5.78;1.88;;;;;;;26.27;39.69;100102.28;5081708;28;20054;-66
2021/08/09 09:28:51;;;;;;;5.60;1.95;;;;;;;25.95;40.07;100109.22;5082658;28;20017;-67
2021/08/09 09:31:30;;;;;;;6.75;1.80;;;;;;;25.12;41.59;100117.22;5081803;28;20021;-68
2021/08/09 09:33:56;;;;;;;9.50;1.90;;;;;;;24.66;43.22;100116.13;5083080;28;20526;-68
2021/08/09 09:36:22;;;;;;;5.18;2.30;;;;;;;24.45;43.62;100114.06;5082856;28;20032;-69
2021/08/09 09:38:52;;;;;;;7.95;2.17;;;;;;;24.33;44.38;100114.00;5082873;28;20083;-66
2021/08/09 09:41:22;;;;;;;7.95;2.17;;;;;;;24.86;43.56;100107.56;5083435;28;20031;-68
2021/08/09 09:43:49;;;;;;;5.07;2.05;;;;;;;25.47;42.50;100107.53;5082823;28;20020;-68
2021/08/09 09:46:28;;;;;;;6.72;2.20;;;;;;;25.95;41.48;100114.53;5082942;28;20469;-67
2021/08/09 09:49:02;;;;;;;5.90;1.83;;;;;;;26.07;40.00;100111.88;5083102;28;20021;-68
2021/08/09 09:51:28;;;;;;;6.10;1.75;;;;;;;25.59;41.11;100113.75;5081766;28;20028;-69
2021/08/09 09:53:53;;;;;;;7.78;2.00;;;;;;;25.99;40.67;100115.13;5083012;28;20029;-69
2021/08/09 09:56:22;;;;;;;4.93;2.00;;;;;;;26.28;40.35;100117.28;5082993;28;20024;-68
2021/08/09 09:58:50;;;;;;;7.25;2.03;;;;;;;26.08;40.10;100124.19;5082516;28;20021;-67
2021/08/09 10:01:17;;;;;;;3.78;2.00;;;;;;;25.73;39.42;100131.31;5085514;28;20032;-68
2021/08/09 10:03:42;;;;;;;4.10;1.75;;;;;;;25.36;40.33;100137.59;5086544;28;20024;-67
2021/08/09 10:06:09;;;;;;;3.65;1.65;;;;;;;25.64;40.14;100122.22;5086716;28;20024;-68
2021/08/09 10:08:41;;;;;;;5.38;2.00;;;;;;;25.74;39.67;100125.00;5086991;28;20043;-67
2021/08/09 10:11:08;;;;;;;5.32;2.13;;;;;;;25.35;40.97;100128.75;5086918;28;20024;-68
2021/08/09 10:13:35;;;;;;;1.70;1.05;;;;;;;25.28;40.14;100116.06;5086535;28;20024;-68
2021/08/09 10:16:11;;;;;;;6.38;1.80;;;;;;;24.79;40.78;100127.56;5086439;28;20048;-67
2021/08/09 10:18:40;;;;;;;7.97;2.20;;;;;;;24.79;42.02;100126.69;5086265;28;20051;-68
2021/08/09 10:21:06;;;;;;;5.85;1.77;;;;;;;25.05;41.52;100132.75;5086577;28;20044;-68
2021/08/09 10:23:36;;;;;;;3.70;1.40;;;;;;;25.15;41.38;100137.38;5086381;28;20033;-68
2021/08/09 10:26:02;;;;;;;6.57;2.00;;;;;;;24.91;42.16;100123.16;5086598;28;20098;-68
2021/08/09 10:28:55;;;;;;;4.88;1.80;;;;;;;24.24;43.55;100142.03;5084972;28;20105;-67
2021/08/09 10:31:30;;;;;;;8.55;2.10;;;;;;;23.80;44.82;100140.66;5085067;28;20031;-67
2021/08/09 10:33:56;;;;;;;8.68;2.30;;;;;;;23.36;45.70;100146.16;5086273;28;20052;-67
2021/08/09 10:36:22;;;;;;;7.47;2.17;;;;;;;23.19;46.41;100144.66;5086344;28;20020;-67
2021/08/09 10:38:50;;;;;;;9.05;2.13;;;;;;;22.95;47.33;100151.47;5086220;28;20029;-67
2021/08/09 10:41:15;;;;;;;7.50;2.55;;;;;;;22.58;48.03;100154.63;5086285;28;20043;-66
2021/08/09 10:44:05;;;;;;;7.72;2.20;;;;;;;22.26;49.25;100146.91;5086532;28;20021;-67
2021/08/09 10:46:39;;;;;;;6.97;2.40;;;;;;;22.75;49.04;100156.22;5086330;28;20036;-67
2021/08/09 10:49:06;;;;;;;6.80;2.42;;;;;;;22.58;48.77;100153.78;5086066;28;20024;-67
2021/08/09 10:51:50;;;;;;;9.30;2.80;;;;;;;22.07;50.04;100152.50;5086164;28;20027;-67
2021/08/09 10:54:28;;;;;;;3.83;2.05;;;;;;;21.55;51.65;100159.00;5086238;28;20024;-67
2021/08/09 10:56:55;;;;;;;6.20;2.45;;;;;;;21.14;53.04;100163.09;5085599;28;20028;-67
2021/08/09 10:59:49;;;;;;;10.25;2.72;;;;;;;20.94;54.05;100156.31;5085597;28;20031;-68
2021/08/09 11:02:15;;;;;;;8.00;2.70;;;;;;;21.10;54.12;100160.72;5085921;28;20058;-67
2021/08/09 11:04:41;;;;;;;5.93;2.30;;;;;;;21.66;52.97;100149.59;5086013;28;20016;-67
2021/08/09 11:07:16;;;;;;;6.80;2.50;;;;;;;22.54;50.92;100148.69;5085777;28;20415;-68
2021/08/09 11:09:43;;;;;;;11.50;2.22;;;;;;;22.76;50.23;100152.63;5085778;28;20025;-68
2021/08/09 11:12:18;;;;;;;6.22;2.63;;;;;;;22.60;49.83;100157.22;5085510;28;20020;-67
2021/08/09 11:15:00;;;;;;;6.03;2.60;;;;;;;22.33;51.25;100147.41;5085850;28;20044;-67
2021/08/09 11:17:26;;;;;;;3.67;1.63;;;;;;;22.58;50.17;100159.06;5085444;28;20044;-67
2021/08/09 11:19:51;;;;;;;5.07;2.00;;;;;;;22.63;48.99;100154.38;5085437;28;20031;-67
2021/08/09 11:22:18;;;;;;;4.22;1.83;;;;;;;22.53;49.19;100151.44;5085667;28;20024;-67
2021/08/09 11:24:43;;;;;;;6.30;1.88;;;;;;;22.44;49.89;100160.81;5085249;28;20380;-66
2021/08/09 11:27:09;;;;;;;7.80;2.55;;;;;;;22.26;50.16;100137.22;5084530;28;20030;-67